• Join FlightAware (Why Join?)
  • Login
  • US Flag 
Rudolph Flight #1: Arrived! 
04:54AM EST


 

Airport Tracker/Info


-or-


 

Live Flight TrackerFlight Track Log ✈ AAY806 ✈ 19-Jun-2013 ✈ KPIE - KSGF

Flight Track Log - Related Links

Times and Time Zones

All times are in EDT time to prevent confusion due to time zone crossing. See the AAY806 flight status page for this flight to view local times or setup timezone preferences in your user account.

Time Position Orientation Groundspeed Altitude Reporting Facility
EDT Latitude Longitude Course Direction KTS MPH feet Rate Location/Type
03:57PM 27.9333 -82.7000 30° Northeast 177 204 1,000  Level Tampa TRACON
03:58PM 27.9833 -82.6667 30° Northeast 236 272 2,600 1,920 Climbing Tampa TRACON
03:59PM 28.0500 -82.6667 360° North 270 311 4,900 2,460 Climbing Tampa TRACON
04:01PM 28.2019 -82.7231 342° North 294 338 10,200 2,220 Climbing Jacksonville Center
04:02PM 28.2897 -82.7489 345° North 300 345 11,700 1,440 Climbing Jacksonville Center
04:03PM 28.3939 -82.7769 347° North 340 391 13,100 1,740 Climbing Jacksonville Center
04:04PM 28.5025 -82.8100 345° North 378 435 15,200 2,100 Climbing Jacksonville Center
04:05PM 28.6175 -82.8431 346° North 405 466 17,300 1,800 Climbing Jacksonville Center
04:06PM 28.7217 -82.8714 347° North 419 482 18,900 1,680 Climbing Jacksonville Center
04:07PM 28.8386 -82.9019 347° North 419 482 20,700 1,620 Climbing Jacksonville Center
04:08PM 28.9597 -82.9378 345° North 430 495 22,200 1,500 Climbing Jacksonville Center
04:09PM 29.0828 -82.9708 347° North 441 507 23,700 1,440 Climbing Jacksonville Center
04:10PM 29.1828 -83.0567 323° Northwest 441 507 25,100 1,440 Climbing Jacksonville Center
04:11PM 29.2767 -83.1522 318° Northwest 441 507 26,600 1,500 Climbing Jacksonville Center
04:12PM 29.3661 -83.2547 315° West 447 514 28,200 1,320 Climbing Jacksonville Center
04:13PM 29.4556 -83.3528 316° Northwest 447 514 29,300 900 Climbing Jacksonville Center
04:14PM 29.5472 -83.4536 316° Northwest 447 514 30,000 300 Climbing Jacksonville Center
04:15PM 29.6386 -83.5519 317° Northwest 447 514 29,900  Descending Jacksonville Center
04:16PM 29.7319 -83.6556 316° Northwest 452 520 30,000  Climbing Jacksonville Center
04:17PM 29.8231 -83.7592 315° West 452 520 30,000 -60 Level Jacksonville Center
04:18PM 29.9142 -83.8606 316° Northwest 452 520 29,900  Descending Jacksonville Center
04:19PM 30.0053 -83.9622 316° Northwest 457 526 30,000  Climbing Jacksonville Center
04:20PM 30.0983 -84.0667 316° Northwest 457 526 30,000  Level Jacksonville Center
04:21PM 30.1892 -84.1686 316° Northwest 457 526 30,000  Level Jacksonville Center
04:22PM 30.2903 -84.2806 316° Northwest 457 526 30,000 300 Level Jacksonville Center
04:23PM 30.3536 -84.3994 302° West 452 520 30,600 480 Climbing Jacksonville Center
04:24PM 30.4064 -84.5328 295° West 447 514 31,000 300 Climbing Jacksonville Center
04:25PM 30.4567 -84.6589 295° West 441 507 31,300 900 Climbing Jacksonville Center
04:26PM 30.5367 -84.7617 312° West 421 484 32,900 1,080 Climbing Jacksonville Center
04:27PM 30.6231 -84.8575 316° Northwest 426 490 33,500 480 Climbing Jacksonville Center
04:28PM 30.7072 -84.9536 316° Northwest 426 490 33,900 240 Climbing Jacksonville Center
04:29PM 30.7953 -85.0547 315° West 426 490 34,000  Climbing Jacksonville Center
04:30PM 30.8811 -85.1511 316° Northwest 431 496 34,000 -60 Level Jacksonville Center
04:31PM 30.9692 -85.2475 317° Northwest 431 496 33,900  Descending Jacksonville Center
04:32PM 31.0550 -85.3492 315° West 431 496 34,000  Climbing Jacksonville Center
04:33PM 31.1428 -85.4436 317° Northwest 431 496 34,000  Level Jacksonville Center
04:34PM 31.2394 -85.5264 324° Northwest 431 496 34,000  Level Jacksonville Center
04:35PM 31.3236 -85.5872 328° Northwest 431 496 34,000  Level Jacksonville Center
04:36PM 31.4325 -85.6731 326° Northwest 431 496 34,000  Level Jacksonville Center
04:38PM 31.6872 -85.8594 328° Northwest 448 516 34,000  Level Atlanta Center
04:39PM 31.7861 -85.9494 322° Northwest 448 516 34,000  Level Atlanta Center
04:40PM 31.8517 -86.0292 314° West 435 501 34,000  Level Atlanta Center
04:41PM 31.9519 -86.1464 315° West 426 490 34,000  Level Atlanta Center
04:42PM 32.0358 -86.2511 313° West 426 490 34,000  Level Atlanta Center
04:43PM 32.1111 -86.3439 314° West 431 496 34,000  Level Atlanta Center
04:44PM 32.2094 -86.4544 316° Northwest 436 502 34,000  Level Atlanta Center
04:45PM 32.2950 -86.5575 314° West 441 507 34,000  Level Atlanta Center
04:46PM 32.3764 -86.6556 315° West 430 495 34,000  Level Atlanta Center
04:47PM 32.4475 -86.7464 313° West 418 481 34,000  Level Atlanta Center
04:48PM 32.5289 -86.8425 315° West 412 474 34,000  Level Atlanta Center
04:49PM 32.6100 -86.9436 314° West 412 474 34,000  Level Atlanta Center
04:50PM 32.6911 -87.0425 314° West 412 474 34,000  Level Atlanta Center
04:51PM 32.7722 -87.1417 314° West 407 468 34,000  Level Atlanta Center
04:52PM 32.8511 -87.2383 314° West 407 468 34,000  Level Atlanta Center
04:53PM 32.9339 -87.3406 314° West 407 468 34,000  Level Atlanta Center
04:54PM 33.0186 -87.4500 313° West 407 468 34,000  Level Atlanta Center
04:57PM 33.2092 -87.6931 313° West 437 503 34,000  Level Memphis Center
04:58PM 33.2906 -87.7925 314° West 432 497 34,000  Level Memphis Center
04:59PM 33.3675 -87.8922 313° West 427 491 34,000  Level Memphis Center
05:00PM 33.4447 -87.9922 313° West 416 479 34,000  Level Memphis Center
05:01PM 33.5239 -88.0922 314° West 411 473 34,000  Level Memphis Center
05:02PM 33.6006 -88.1900 313° West 411 473 34,000  Level Memphis Center
05:03PM 33.6689 -88.2781 313° West 411 473 34,000  Level Memphis Center
05:04PM 33.7478 -88.3761 314° West 411 473 34,000  Level Memphis Center
05:05PM 33.8267 -88.4767 313° West 411 473 34,000  Level Memphis Center
05:06PM 33.9053 -88.5778 313° West 411 473 34,000  Level Memphis Center
05:07PM 33.9819 -88.6789 312° West 411 473 34,000  Level Memphis Center
05:08PM 34.0481 -88.7878 306° West 411 473 34,000  Level Memphis Center
05:09PM 34.1119 -88.9097 302° West 401 461 34,000  Level Memphis Center
05:10PM 34.1719 -89.0292 301° West 406 467 34,000  Level Memphis Center
05:11PM 34.2314 -89.1411 303° West 406 467 34,000  Level Memphis Center
05:12PM 34.2931 -89.2561 303° West 406 467 34,000  Level Memphis Center
05:13PM 34.3525 -89.3708 302° West 406 467 34,000  Level Memphis Center
05:14PM 34.4139 -89.4861 303° West 411 473 34,000  Level Memphis Center
05:15PM 34.4686 -89.5861 304° West 406 467 34,000  Level Memphis Center
05:16PM 34.5444 -89.6839 313° West 406 467 34,000  Level Memphis Center
05:17PM 34.6200 -89.7842 312° West 398 458 34,000  Level Memphis Center
05:18PM 34.7039 -89.8975 312° West 403 464 34,000  Level Memphis Center
05:19PM 34.7836 -90.0006 313° West 410 472 34,000  Level Memphis Center
05:20PM 34.8589 -90.0964 314° West 405 466 34,000  Level Memphis Center
05:21PM 34.9364 -90.1950 314° West 399 459 34,000  Level Memphis Center
05:22PM 35.0156 -90.2989 313° West 405 466 34,000  Level Memphis Center
05:23PM 35.0969 -90.4053 313° West 417 480 34,000  Level Memphis Center
05:24PM 35.1681 -90.4992 313° West 417 480 34,000  Level Memphis Center
05:25PM 35.2469 -90.6061 312° West 417 480 34,000  Level Memphis Center
05:26PM 35.3239 -90.7108 312° West 417 480 34,000  Level Memphis Center
05:27PM 35.4028 -90.8131 313° West 411 473 34,000  Level Memphis Center
05:28PM 35.4775 -90.9153 312° West 411 473 34,000  Level Memphis Center
05:29PM 35.5542 -91.0206 312° West 418 481 34,000  Level Memphis Center
05:30PM 35.6392 -91.1311 313° West 411 473 34,000  Level Memphis Center
05:31PM 35.7011 -91.2236 310° West 406 467 34,000  Level Memphis Center
05:32PM 35.7775 -91.3267 312° West 406 467 34,000  Level Memphis Center
05:33PM 35.8661 -91.4431 313° West 411 473 34,000 -300 Level Memphis Center
05:34PM 35.9403 -91.5442 312° West 411 473 33,500 -720 Descending Memphis Center
05:35PM 36.0061 -91.6400 310° West 406 467 32,600 -1,740 Descending Memphis Center
05:36PM 36.0861 -91.7517 312° West 418 481 30,100 -2,040 Descending Memphis Center
05:37PM 36.1642 -91.8636 311° West 423 487 28,600 -1,560 Descending Memphis Center
05:38PM 36.2544 -91.9808 314° West 423 487 27,000 -1,560 Descending Memphis Center
05:39PM 36.3322 -92.0881 312° West 423 487 25,500 -1,500 Descending Memphis Center
05:40PM 36.4058 -92.1928 311° West 412 474 24,000 -780 Descending Memphis Center
05:41PM 36.4792 -92.2953 312° West 406 467 24,000  Level Memphis Center
05:42PM 36.5444 -92.3872 311° West 401 461 24,000  Level Memphis Center
05:43PM 36.6200 -92.4925 312° West 401 461 24,000 -1,500 Level Memphis Center
05:44PM 36.7206 -92.6336 312° West 400 460 20,700 -2,460 Descending Kansas City Center
05:45PM 36.7972 -92.7417 312° West 408 470 18,400 -2,280 Descending Kansas City Center
05:46PM 36.8683 -92.8469 310° West 404 465 16,100 -1,320 Descending Kansas City Center
05:47PM 36.9325 -92.9411 310° West 386 444 15,700 -960 Descending Kansas City Center
05:48PM 36.9964 -93.0108 319° Northwest 343 395 14,200 -1,860 Descending Kansas City Center
05:49PM 37.0642 -93.0703 325° Northwest 311 358 11,900 -2,280 Descending Kansas City Center
05:50PM 37.1308 -93.1311 324° Northwest 300 345 9,600 -2,460 Descending Kansas City Center
05:51PM 37.2081 -93.2044 323° Northwest 294 338 6,800 -2,520 Descending Kansas City Center
05:52PM 37.2703 -93.2678 321° Northwest 291 335 4,400 -1,380 Descending Kansas City Center
05:53PM 37.3292 -93.3286 321° Northwest 285 328 4,000 -600 Descending Kansas City Center
05:54PM 37.3411 -93.3911 284° West 249 287 3,200 -780 Descending Kansas City Center